sensor_id;sensor_type;location;lat;lon;timestamp;pressure;altitude;pressure_sealevel;temperature;humidity
27864;BME280;15980;51.092;13.916;2022-12-07T00:01:26;98408.34;;;1.92;100.00
27864;BME280;15980;51.092;13.916;2022-12-07T00:06:32;98406.63;;;1.77;100.00
27864;BME280;15980;51.092;13.916;2022-12-07T00:11:40;98404.03;;;1.91;100.00
27864;BME280;15980;51.092;13.916;2022-12-07T00:16:48;98403.06;;;2.00;100.00
27864;BME280;15980;51.092;13.916;2022-12-07T00:21:54;98386.53;;;1.83;100.00
27864;BME280;15980;51.092;13.916;2022-12-07T00:27:02;98390.34;;;1.82;100.00
27864;BME280;15980;51.092;13.916;2022-12-07T00:32:06;98385.84;;;1.72;100.00
27864;BME280;15980;51.092;13.916;2022-12-07T00:37:11;98380.69;;;1.52;100.00
27864;BME280;15980;51.092;13.916;2022-12-07T00:42:20;98377.50;;;1.69;100.00
27864;BME280;15980;51.092;13.916;2022-12-07T00:47:24;98381.44;;;1.57;100.00
27864;BME280;15980;51.092;13.916;2022-12-07T00:52:29;98385.22;;;1.80;100.00
27864;BME280;15980;51.092;13.916;2022-12-07T00:57:37;98366.94;;;1.91;100.00
27864;BME280;15980;51.092;13.916;2022-12-07T01:02:42;98381.94;;;1.83;100.00
27864;BME280;15980;51.092;13.916;2022-12-07T01:07:47;98382.22;;;2.01;100.00
27864;BME280;15980;51.092;13.916;2022-12-07T01:12:54;98381.81;;;1.70;100.00
27864;BME280;15980;51.092;13.916;2022-12-07T01:17:59;98372.53;;;2.18;100.00
27864;BME280;15980;51.092;13.916;2022-12-07T01:23:04;98382.28;;;1.77;100.00
27864;BME280;15980;51.092;13.916;2022-12-07T01:28:12;98374.91;;;1.82;100.00
27864;BME280;15980;51.092;13.916;2022-12-07T01:33:17;98364.22;;;2.10;100.00
27864;BME280;15980;51.092;13.916;2022-12-07T01:38:22;98358.47;;;1.98;100.00
27864;BME280;15980;51.092;13.916;2022-12-07T01:43:32;98359.28;;;1.98;100.00
27864;BME280;15980;51.092;13.916;2022-12-07T01:48:40;98373.63;;;2.17;100.00
27864;BME280;15980;51.092;13.916;2022-12-07T01:53:46;98369.53;;;2.20;99.55
27864;BME280;15980;51.092;13.916;2022-12-07T01:58:54;98367.75;;;2.10;100.00
27864;BME280;15980;51.092;13.916;2022-12-07T02:04:00;98371.06;;;2.26;100.00
27864;BME280;15980;51.092;13.916;2022-12-07T02:09:06;98366.50;;;2.03;100.00
27864;BME280;15980;51.092;13.916;2022-12-07T02:14:13;98368.41;;;1.83;100.00
27864;BME280;15980;51.092;13.916;2022-12-07T02:19:45;98366.78;;;1.82;100.00
27864;BME280;15980;51.092;13.916;2022-12-07T02:24:58;98354.81;;;2.26;100.00
27864;BME280;15980;51.092;13.916;2022-12-07T02:30:14;98345.75;;;2.17;100.00
27864;BME280;15980;51.092;13.916;2022-12-07T02:35:23;98346.69;;;2.07;100.00
27864;BME280;15980;51.092;13.916;2022-12-07T02:40:33;98354.28;;;2.05;100.00
27864;BME280;15980;51.092;13.916;2022-12-07T02:51:39;98343.56;;;1.39;100.00
27864;BME280;15980;51.092;13.916;2022-12-07T02:56:46;98338.91;;;1.63;100.00
27864;BME280;15980;51.092;13.916;2022-12-07T03:02:00;98340.66;;;1.54;100.00
27864;BME280;15980;51.092;13.916;2022-12-07T03:07:20;98332.25;;;1.55;100.00
27864;BME280;15980;51.092;13.916;2022-12-07T03:12:31;98317.88;;;1.79;100.00
27864;BME280;15980;51.092;13.916;2022-12-07T03:17:41;98323.22;;;1.84;100.00
27864;BME280;15980;51.092;13.916;2022-12-07T03:22:51;98315.75;;;1.95;99.38
27864;BME280;15980;51.092;13.916;2022-12-07T03:28:02;98313.75;;;1.44;98.53
27864;BME280;15980;51.092;13.916;2022-12-07T03:33:13;98302.38;;;1.47;98.94
27864;BME280;15980;51.092;13.916;2022-12-07T03:38:26;98310.09;;;1.35;99.91
27864;BME280;15980;51.092;13.916;2022-12-07T03:43:32;98302.31;;;1.28;99.71
27864;BME280;15980;51.092;13.916;2022-12-07T03:48:41;98307.63;;;1.14;99.11
27864;BME280;15980;51.092;13.916;2022-12-07T03:53:54;98298.19;;;1.12;99.35
27864;BME280;15980;51.092;13.916;2022-12-07T03:59:01;98297.97;;;1.08;99.38
27864;BME280;15980;51.092;13.916;2022-12-07T04:04:06;98297.44;;;1.06;99.51
27864;BME280;15980;51.092;13.916;2022-12-07T04:09:14;98295.84;;;1.05;99.23
27864;BME280;15980;51.092;13.916;2022-12-07T04:14:19;98284.53;;;1.03;98.86
27864;BME280;15980;51.092;13.916;2022-12-07T04:19:26;98276.28;;;1.13;100.00
27864;BME280;15980;51.092;13.916;2022-12-07T04:24:35;98282.34;;;1.05;100.00
27864;BME280;15980;51.092;13.916;2022-12-07T04:29:40;98266.13;;;1.05;98.97
27864;BME280;15980;51.092;13.916;2022-12-07T04:34:45;98269.00;;;0.90;98.98
27864;BME280;15980;51.092;13.916;2022-12-07T04:39:54;98256.31;;;0.90;100.00
27864;BME280;15980;51.092;13.916;2022-12-07T04:44:59;98249.63;;;0.83;99.21
27864;BME280;15980;51.092;13.916;2022-12-07T04:50:06;98250.25;;;0.75;99.09
27864;BME280;15980;51.092;13.916;2022-12-07T04:55:13;98240.59;;;0.69;98.69
27864;BME280;15980;51.092;13.916;2022-12-07T05:00:19;98249.22;;;0.71;99.26
27864;BME280;15980;51.092;13.916;2022-12-07T05:05:25;98232.81;;;0.67;99.19
27864;BME280;15980;51.092;13.916;2022-12-07T05:10:33;98226.72;;;0.56;98.90
27864;BME280;15980;51.092;13.916;2022-12-07T05:15:38;98220.16;;;0.62;99.26
27864;BME280;15980;51.092;13.916;2022-12-07T05:20:44;98218.50;;;0.67;99.21
27864;BME280;15980;51.092;13.916;2022-12-07T05:25:52;98221.06;;;0.77;98.83
27864;BME280;15980;51.092;13.916;2022-12-07T05:30:57;98223.03;;;0.71;97.92
27864;BME280;15980;51.092;13.916;2022-12-07T05:36:02;98229.19;;;0.77;98.73
27864;BME280;15980;51.092;13.916;2022-12-07T05:41:14;98221.22;;;0.85;97.58
27864;BME280;15980;51.092;13.916;2022-12-07T05:46:32;98206.19;;;1.22;98.11
27864;BME280;15980;51.092;13.916;2022-12-07T05:51:36;98205.91;;;1.23;96.39
27864;BME280;15980;51.092;13.916;2022-12-07T05:56:45;98189.41;;;1.44;95.67
27864;BME280;15980;51.092;13.916;2022-12-07T06:01:53;98190.78;;;1.41;94.92
27864;BME280;15980;51.092;13.916;2022-12-07T06:06:58;98185.38;;;1.60;94.58
27864;BME280;15980;51.092;13.916;2022-12-07T06:12:08;98192.09;;;1.63;93.51
27864;BME280;15980;51.092;13.916;2022-12-07T06:17:26;98185.94;;;1.57;93.29
27864;BME280;15980;51.092;13.916;2022-12-07T06:22:31;98181.03;;;1.78;94.41
27864;BME280;15980;51.092;13.916;2022-12-07T06:27:39;98174.06;;;1.91;94.41
27864;BME280;15980;51.092;13.916;2022-12-07T06:32:46;98168.84;;;1.80;92.03
27864;BME280;15980;51.092;13.916;2022-12-07T06:37:58;98162.34;;;1.95;92.98
27864;BME280;15980;51.092;13.916;2022-12-07T06:43:09;98170.13;;;1.83;91.55
27864;BME280;15980;51.092;13.916;2022-12-07T06:48:17;98182.94;;;1.77;92.93
27864;BME280;15980;51.092;13.916;2022-12-07T06:53:23;98175.78;;;1.68;92.51
27864;BME280;15980;51.092;13.916;2022-12-07T06:58:33;98171.44;;;1.85;93.14
27864;BME280;15980;51.092;13.916;2022-12-07T07:03:40;98179.94;;;1.79;94.35
27864;BME280;15980;51.092;13.916;2022-12-07T07:08:47;98175.22;;;1.52;95.87
27864;BME280;15980;51.092;13.916;2022-12-07T07:14:00;98175.06;;;1.62;95.59
27864;BME280;15980;51.092;13.916;2022-12-07T07:19:08;98171.31;;;1.77;96.41
27864;BME280;15980;51.092;13.916;2022-12-07T07:24:14;98171.41;;;1.53;99.73
27864;BME280;15980;51.092;13.916;2022-12-07T07:29:22;98174.47;;;1.65;100.00
27864;BME280;15980;51.092;13.916;2022-12-07T07:34:27;98185.44;;;1.55;100.00
27864;BME280;15980;51.092;13.916;2022-12-07T07:39:32;98189.56;;;1.34;100.00
27864;BME280;15980;51.092;13.916;2022-12-07T07:44:39;98193.13;;;1.10;100.00
27864;BME280;15980;51.092;13.916;2022-12-07T07:49:44;98181.44;;;1.34;100.00
27864;BME280;15980;51.092;13.916;2022-12-07T07:54:49;98192.47;;;1.56;100.00
27864;BME280;15980;51.092;13.916;2022-12-07T07:59:57;98182.81;;;1.50;100.00
27864;BME280;15980;51.092;13.916;2022-12-07T08:05:03;98200.66;;;1.32;100.00
27864;BME280;15980;51.092;13.916;2022-12-07T08:10:10;98190.56;;;1.75;100.00
27864;BME280;15980;51.092;13.916;2022-12-07T08:15:18;98195.22;;;1.70;100.00
27864;BME280;15980;51.092;13.916;2022-12-07T08:20:23;98197.25;;;2.10;100.00
27864;BME280;15980;51.092;13.916;2022-12-07T08:25:28;98197.44;;;2.00;100.00
27864;BME280;15980;51.092;13.916;2022-12-07T08:30:35;98190.78;;;2.25;100.00
27864;BME280;15980;51.092;13.916;2022-12-07T08:35:40;98183.19;;;2.27;100.00
27864;BME280;15980;51.092;13.916;2022-12-07T08:40:45;98195.53;;;2.47;100.00
27864;BME280;15980;51.092;13.916;2022-12-07T08:45:56;98187.50;;;2.42;100.00
27864;BME280;15980;51.092;13.916;2022-12-07T08:51:05;98194.22;;;2.44;100.00
27864;BME280;15980;51.092;13.916;2022-12-07T08:56:10;98192.63;;;2.57;100.00
27864;BME280;15980;51.092;13.916;2022-12-07T09:01:17;98199.13;;;2.56;99.59
27864;BME280;15980;51.092;13.916;2022-12-07T09:06:22;98196.13;;;2.85;100.00
27864;BME280;15980;51.092;13.916;2022-12-07T09:11:27;98206.59;;;2.64;99.24
27864;BME280;15980;51.092;13.916;2022-12-07T09:16:35;98199.53;;;2.91;98.71
27864;BME280;15980;51.092;13.916;2022-12-07T09:21:40;98206.38;;;2.88;97.06
27864;BME280;15980;51.092;13.916;2022-12-07T09:26:45;98194.84;;;2.82;99.33
27864;BME280;15980;51.092;13.916;2022-12-07T09:31:52;98193.53;;;3.07;99.09
27864;BME280;15980;51.092;13.916;2022-12-07T09:36:57;98191.63;;;3.08;96.68
27864;BME280;15980;51.092;13.916;2022-12-07T09:42:04;98181.97;;;3.02;98.13
27864;BME280;15980;51.092;13.916;2022-12-07T09:47:15;98184.09;;;3.05;98.04
27864;BME280;15980;51.092;13.916;2022-12-07T09:52:25;98190.13;;;2.88;96.78
27864;BME280;15980;51.092;13.916;2022-12-07T09:57:33;98194.63;;;3.06;97.91
27864;BME280;15980;51.092;13.916;2022-12-07T10:02:43;98178.47;;;3.73;99.68
27864;BME280;15980;51.092;13.916;2022-12-07T10:07:49;98184.81;;;3.69;95.28
27864;BME280;15980;51.092;13.916;2022-12-07T10:12:57;98173.88;;;3.38;95.66
27864;BME280;15980;51.092;13.916;2022-12-07T10:18:17;98169.09;;;3.57;92.84
27864;BME280;15980;51.092;13.916;2022-12-07T10:23:24;98170.34;;;3.96;95.06
27864;BME280;15980;51.092;13.916;2022-12-07T10:28:35;98160.91;;;3.35;93.24
27864;BME280;15980;51.092;13.916;2022-12-07T10:33:53;98166.28;;;3.26;95.17
27864;BME280;15980;51.092;13.916;2022-12-07T10:39:03;98158.66;;;3.73;94.89
27864;BME280;15980;51.092;13.916;2022-12-07T10:44:21;98155.56;;;4.10;93.10
27864;BME280;15980;51.092;13.916;2022-12-07T10:55:16;98161.38;;;3.95;91.93
27864;BME280;15980;51.092;13.916;2022-12-07T11:00:28;98143.09;;;3.42;92.33
27864;BME280;15980;51.092;13.916;2022-12-07T11:05:47;98148.34;;;4.06;93.88
27864;BME280;15980;51.092;13.916;2022-12-07T11:11:02;98141.16;;;3.57;94.95
27864;BME280;15980;51.092;13.916;2022-12-07T11:16:24;98128.91;;;3.59;95.52
27864;BME280;15980;51.092;13.916;2022-12-07T11:21:45;98132.88;;;3.84;94.73
27864;BME280;15980;51.092;13.916;2022-12-07T11:27:04;98130.25;;;3.70;94.95
27864;BME280;15980;51.092;13.916;2022-12-07T11:32:19;98132.34;;;3.51;97.39
27864;BME280;15980;51.092;13.916;2022-12-07T11:37:32;98121.50;;;3.73;95.38
27864;BME280;15980;51.092;13.916;2022-12-07T11:42:42;98122.47;;;3.77;96.67
27864;BME280;15980;51.092;13.916;2022-12-07T11:47:55;98116.06;;;3.73;94.04
27864;BME280;15980;51.092;13.916;2022-12-07T11:53:17;98132.56;;;3.19;98.42
27864;BME280;15980;51.092;13.916;2022-12-07T11:58:42;98147.78;;;2.51;99.05
27864;BME280;15980;51.092;13.916;2022-12-07T12:03:58;98135.34;;;2.50;100.00
27864;BME280;15980;51.092;13.916;2022-12-07T12:09:14;98116.16;;;2.88;100.00
27864;BME280;15980;51.092;13.916;2022-12-07T12:14:48;98114.81;;;2.99;100.00
27864;BME280;15980;51.092;13.916;2022-12-07T12:20:05;98120.19;;;2.76;100.00
27864;BME280;15980;51.092;13.916;2022-12-07T12:25:21;98111.78;;;2.37;100.00
27864;BME280;15980;51.092;13.916;2022-12-07T12:30:35;98114.09;;;2.43;100.00
27864;BME280;15980;51.092;13.916;2022-12-07T12:35:42;98113.59;;;2.69;100.00
27864;BME280;15980;51.092;13.916;2022-12-07T12:40:51;98101.19;;;2.90;100.00
27864;BME280;15980;51.092;13.916;2022-12-07T12:51:38;98104.66;;;3.18;100.00
27864;BME280;15980;51.092;13.916;2022-12-07T12:56:50;98109.69;;;3.11;99.77
27864;BME280;15980;51.092;13.916;2022-12-07T13:02:14;98095.97;;;3.30;100.00
27864;BME280;15980;51.092;13.916;2022-12-07T13:07:54;98101.13;;;3.18;99.88
27864;BME280;15980;51.092;13.916;2022-12-07T13:18:36;98096.63;;;3.13;98.59
27864;BME280;15980;51.092;13.916;2022-12-07T13:23:55;98092.50;;;3.15;99.16
27864;BME280;15980;51.092;13.916;2022-12-07T13:29:11;98099.03;;;2.78;99.98
27864;BME280;15980;51.092;13.916;2022-12-07T13:34:33;98112.00;;;2.27;100.00
27864;BME280;15980;51.092;13.916;2022-12-07T13:39:46;98098.72;;;1.84;100.00
27864;BME280;15980;51.092;13.916;2022-12-07T13:44:56;98107.13;;;1.82;100.00
27864;BME280;15980;51.092;13.916;2022-12-07T13:50:23;98097.59;;;1.39;100.00
27864;BME280;15980;51.092;13.916;2022-12-07T13:55:30;98102.25;;;1.66;100.00
27864;BME280;15980;51.092;13.916;2022-12-07T14:00:42;98108.66;;;2.02;100.00
27864;BME280;15980;51.092;13.916;2022-12-07T14:06:04;98109.59;;;2.25;100.00
27864;BME280;15980;51.092;13.916;2022-12-07T14:11:14;98109.88;;;2.37;100.00
27864;BME280;15980;51.092;13.916;2022-12-07T14:16:26;98113.06;;;2.80;100.00
27864;BME280;15980;51.092;13.916;2022-12-07T14:21:34;98120.22;;;2.35;100.00
27864;BME280;15980;51.092;13.916;2022-12-07T14:26:40;98108.66;;;2.57;100.00
27864;BME280;15980;51.092;13.916;2022-12-07T14:31:50;98114.25;;;2.88;100.00
27864;BME280;15980;51.092;13.916;2022-12-07T14:36:57;98102.72;;;2.82;99.91
27864;BME280;15980;51.092;13.916;2022-12-07T14:42:03;98101.56;;;2.97;100.00
27864;BME280;15980;51.092;13.916;2022-12-07T14:53:07;98099.09;;;2.87;99.61
27864;BME280;15980;51.092;13.916;2022-12-07T14:58:24;98094.56;;;2.96;99.57
27864;BME280;15980;51.092;13.916;2022-12-07T15:03:30;98098.75;;;3.02;98.70
27864;BME280;15980;51.092;13.916;2022-12-07T15:08:40;98101.47;;;3.02;99.10
27864;BME280;15980;51.092;13.916;2022-12-07T15:13:46;98091.63;;;3.06;98.98
27864;BME280;15980;51.092;13.916;2022-12-07T15:19:05;98090.53;;;2.94;97.93
27864;BME280;15980;51.092;13.916;2022-12-07T15:24:34;98095.25;;;3.02;98.80
27864;BME280;15980;51.092;13.916;2022-12-07T15:29:41;98118.75;;;2.93;99.08
27864;BME280;15980;51.092;13.916;2022-12-07T15:34:48;98122.09;;;2.76;100.00
27864;BME280;15980;51.092;13.916;2022-12-07T15:39:58;98128.09;;;2.04;100.00
27864;BME280;15980;51.092;13.916;2022-12-07T15:45:10;98120.22;;;2.35;100.00
27864;BME280;15980;51.092;13.916;2022-12-07T15:50:19;98125.81;;;2.39;100.00
27864;BME280;15980;51.092;13.916;2022-12-07T15:55:27;98118.59;;;2.20;100.00
27864;BME280;15980;51.092;13.916;2022-12-07T16:00:33;98123.00;;;2.16;99.27
27864;BME280;15980;51.092;13.916;2022-12-07T16:05:39;98114.00;;;2.21;100.00
27864;BME280;15980;51.092;13.916;2022-12-07T16:10:48;98115.91;;;2.34;100.00
27864;BME280;15980;51.092;13.916;2022-12-07T16:15:56;98114.19;;;2.38;99.65
27864;BME280;15980;51.092;13.916;2022-12-07T16:21:03;98118.00;;;2.37;99.12
27864;BME280;15980;51.092;13.916;2022-12-07T16:26:14;98113.50;;;2.33;98.73
27864;BME280;15980;51.092;13.916;2022-12-07T16:31:22;98114.19;;;2.25;99.06
27864;BME280;15980;51.092;13.916;2022-12-07T16:36:29;98113.81;;;2.31;100.00
27864;BME280;15980;51.092;13.916;2022-12-07T16:42:04;98102.84;;;2.09;100.00
27864;BME280;15980;51.092;13.916;2022-12-07T16:47:11;98106.97;;;2.20;100.00
27864;BME280;15980;51.092;13.916;2022-12-07T16:52:18;98105.88;;;2.35;99.68
27864;BME280;15980;51.092;13.916;2022-12-07T16:57:26;98111.00;;;2.36;100.00
27864;BME280;15980;51.092;13.916;2022-12-07T17:02:32;98119.22;;;2.17;99.23
27864;BME280;15980;51.092;13.916;2022-12-07T17:07:39;98102.25;;;2.67;99.28
27864;BME280;15980;51.092;13.916;2022-12-07T17:12:48;98111.50;;;2.38;98.19
27864;BME280;15980;51.092;13.916;2022-12-07T17:17:57;98091.81;;;2.46;100.00
27864;BME280;15980;51.092;13.916;2022-12-07T17:23:08;98112.19;;;2.44;99.32
27864;BME280;15980;51.092;13.916;2022-12-07T17:28:17;98103.97;;;2.35;99.00
27864;BME280;15980;51.092;13.916;2022-12-07T17:33:23;98107.97;;;2.51;98.84
27864;BME280;15980;51.092;13.916;2022-12-07T17:38:29;98113.00;;;2.44;99.02
27864;BME280;15980;51.092;13.916;2022-12-07T17:43:39;98111.09;;;2.45;97.92
27864;BME280;15980;51.092;13.916;2022-12-07T17:48:45;98112.75;;;2.82;98.07
27864;BME280;15980;51.092;13.916;2022-12-07T17:53:51;98109.56;;;2.52;96.90
27864;BME280;15980;51.092;13.916;2022-12-07T17:59:00;98116.22;;;2.60;97.51
27864;BME280;15980;51.092;13.916;2022-12-07T18:04:09;98114.56;;;2.59;98.34
27864;BME280;15980;51.092;13.916;2022-12-07T18:09:16;98111.47;;;2.66;95.89
27864;BME280;15980;51.092;13.916;2022-12-07T18:14:27;98106.75;;;2.71;97.96
27864;BME280;15980;51.092;13.916;2022-12-07T18:19:34;98119.41;;;2.76;95.48
27864;BME280;15980;51.092;13.916;2022-12-07T18:24:43;98128.13;;;2.18;97.07
27864;BME280;15980;51.092;13.916;2022-12-07T18:29:51;98125.22;;;2.56;97.36
27864;BME280;15980;51.092;13.916;2022-12-07T18:34:57;98123.16;;;1.93;98.26
27864;BME280;15980;51.092;13.916;2022-12-07T18:40:05;98124.22;;;2.24;97.79
27864;BME280;15980;51.092;13.916;2022-12-07T18:45:18;98125.78;;;2.11;97.93
27864;BME280;15980;51.092;13.916;2022-12-07T18:50:24;98122.69;;;2.04;97.55
27864;BME280;15980;51.092;13.916;2022-12-07T18:55:32;98116.00;;;2.29;96.72
27864;BME280;15980;51.092;13.916;2022-12-07T19:00:41;98116.91;;;2.25;97.96
27864;BME280;15980;51.092;13.916;2022-12-07T19:05:47;98125.22;;;2.28;97.89
27864;BME280;15980;51.092;13.916;2022-12-07T19:10:54;98131.09;;;2.03;97.04
27864;BME280;15980;51.092;13.916;2022-12-07T19:16:27;98122.81;;;2.27;98.10
27864;BME280;15980;51.092;13.916;2022-12-07T19:21:35;98134.25;;;2.24;96.86
27864;BME280;15980;51.092;13.916;2022-12-07T19:26:42;98122.91;;;2.35;96.23
27864;BME280;15980;51.092;13.916;2022-12-07T19:31:51;98120.41;;;2.39;95.75
27864;BME280;15980;51.092;13.916;2022-12-07T19:36:58;98119.22;;;2.31;96.44
27864;BME280;15980;51.092;13.916;2022-12-07T19:42:05;98119.09;;;2.50;95.43
27864;BME280;15980;51.092;13.916;2022-12-07T19:47:16;98115.97;;;2.57;95.03
27864;BME280;15980;51.092;13.916;2022-12-07T19:52:21;98122.00;;;2.53;94.91
27864;BME280;15980;51.092;13.916;2022-12-07T19:57:30;98116.38;;;2.50;93.64
27864;BME280;15980;51.092;13.916;2022-12-07T20:02:44;98112.97;;;2.58;94.10
27864;BME280;15980;51.092;13.916;2022-12-07T20:07:50;98108.69;;;2.43;94.79
27864;BME280;15980;51.092;13.916;2022-12-07T20:12:59;98109.78;;;2.29;94.24
27864;BME280;15980;51.092;13.916;2022-12-07T20:18:20;98103.38;;;2.25;95.77
27864;BME280;15980;51.092;13.916;2022-12-07T20:23:27;98116.72;;;2.21;95.93
27864;BME280;15980;51.092;13.916;2022-12-07T20:28:34;98109.59;;;2.25;95.92
27864;BME280;15980;51.092;13.916;2022-12-07T20:33:44;98102.28;;;2.26;94.69
27864;BME280;15980;51.092;13.916;2022-12-07T20:38:58;98100.16;;;2.36;95.84
27864;BME280;15980;51.092;13.916;2022-12-07T20:44:19;98109.09;;;2.37;94.94
27864;BME280;15980;51.092;13.916;2022-12-07T20:49:31;98106.25;;;2.56;95.44
27864;BME280;15980;51.092;13.916;2022-12-07T20:54:37;98101.25;;;2.49;94.60
27864;BME280;15980;51.092;13.916;2022-12-07T20:59:44;98090.50;;;2.58;94.92
27864;BME280;15980;51.092;13.916;2022-12-07T21:04:53;98099.34;;;2.63;94.54
27864;BME280;15980;51.092;13.916;2022-12-07T21:09:58;98094.13;;;2.67;94.77
27864;BME280;15980;51.092;13.916;2022-12-07T21:15:05;98097.03;;;2.57;93.84
27864;BME280;15980;51.092;13.916;2022-12-07T21:20:16;98097.56;;;2.31;94.54
27864;BME280;15980;51.092;13.916;2022-12-07T21:25:21;98096.84;;;2.26;94.37
27864;BME280;15980;51.092;13.916;2022-12-07T21:30:27;98101.34;;;2.16;94.22
27864;BME280;15980;51.092;13.916;2022-12-07T21:35:43;98087.91;;;2.11;94.86
27864;BME280;15980;51.092;13.916;2022-12-07T21:40:48;98093.22;;;2.03;95.39
27864;BME280;15980;51.092;13.916;2022-12-07T21:45:53;98089.72;;;2.02;95.33
27864;BME280;15980;51.092;13.916;2022-12-07T21:51:05;98102.13;;;2.03;95.69
27864;BME280;15980;51.092;13.916;2022-12-07T21:56:14;98087.81;;;2.03;95.68
27864;BME280;15980;51.092;13.916;2022-12-07T22:01:21;98082.09;;;2.04;95.69
27864;BME280;15980;51.092;13.916;2022-12-07T22:06:29;98082.19;;;1.99;94.27
27864;BME280;15980;51.092;13.916;2022-12-07T22:11:34;98087.22;;;2.06;96.44
27864;BME280;15980;51.092;13.916;2022-12-07T22:16:39;98088.81;;;2.07;94.88
27864;BME280;15980;51.092;13.916;2022-12-07T22:21:47;98089.91;;;2.06;95.12
27864;BME280;15980;51.092;13.916;2022-12-07T22:26:52;98088.59;;;2.03;94.25
27864;BME280;15980;51.092;13.916;2022-12-07T22:31:57;98093.16;;;2.22;95.39
27864;BME280;15980;51.092;13.916;2022-12-07T22:37:12;98084.41;;;1.97;94.41
27864;BME280;15980;51.092;13.916;2022-12-07T22:42:17;98091.03;;;2.18;94.47
27864;BME280;15980;51.092;13.916;2022-12-07T22:47:22;98084.31;;;2.30;93.81
27864;BME280;15980;51.092;13.916;2022-12-07T22:52:29;98073.59;;;2.38;93.14
27864;BME280;15980;51.092;13.916;2022-12-07T22:57:34;98072.88;;;2.33;93.05
27864;BME280;15980;51.092;13.916;2022-12-07T23:02:39;98066.38;;;2.34;93.54
27864;BME280;15980;51.092;13.916;2022-12-07T23:07:47;98070.06;;;2.51;92.95
27864;BME280;15980;51.092;13.916;2022-12-07T23:12:52;98065.81;;;2.59;94.22
27864;BME280;15980;51.092;13.916;2022-12-07T23:18:09;98064.63;;;2.65;92.10
27864;BME280;15980;51.092;13.916;2022-12-07T23:23:17;98069.88;;;2.62;91.82
27864;BME280;15980;51.092;13.916;2022-12-07T23:28:22;98065.25;;;2.62;92.20
27864;BME280;15980;51.092;13.916;2022-12-07T23:33:27;98059.41;;;2.69;91.63
27864;BME280;15980;51.092;13.916;2022-12-07T23:38:34;98062.63;;;2.71;91.21
27864;BME280;15980;51.092;13.916;2022-12-07T23:43:39;98053.97;;;2.82;91.77
27864;BME280;15980;51.092;13.916;2022-12-07T23:48:45;98052.53;;;2.85;91.29
27864;BME280;15980;51.092;13.916;2022-12-07T23:53:54;98045.28;;;2.94;91.66
27864;BME280;15980;51.092;13.916;2022-12-07T23:58:59;98040.06;;;2.98;90.87
